createdAt,value
2018-05-21T00:00:48.568Z,60.72
2018-05-21T00:03:51.087Z,60.03
2018-05-21T00:06:53.545Z,59.44
2018-05-21T00:09:56.030Z,59.35
2018-05-21T00:12:58.501Z,59.11
2018-05-21T00:16:01.005Z,58.25
2018-05-21T00:19:03.500Z,59.00
2018-05-21T00:22:05.918Z,59.50
2018-05-21T00:25:08.461Z,59.56
2018-05-21T00:28:10.912Z,59.73
2018-05-21T00:31:13.361Z,60.15
2018-05-21T00:34:15.788Z,59.48
2018-05-21T00:37:18.352Z,59.28
2018-05-21T00:40:20.811Z,59.32
2018-05-21T00:43:23.310Z,59.67
2018-05-21T00:46:25.783Z,59.32
2018-05-21T00:49:28.221Z,59.27
2018-05-21T00:52:30.737Z,60.54
2018-05-21T00:55:39.261Z,60.54
2018-05-21T00:58:41.736Z,60.52
2018-05-21T01:01:44.317Z,60.83
2018-05-21T01:04:46.842Z,61.35
2018-05-21T01:07:49.337Z,60.42
2018-05-21T01:10:51.751Z,61.74
2018-05-21T01:13:54.329Z,62.28
2018-05-21T01:16:56.787Z,61.70
2018-05-21T01:20:00.226Z,61.87
2018-05-21T01:23:02.701Z,62.27
2018-05-21T01:26:05.293Z,62.02
2018-05-21T01:29:07.737Z,62.18
2018-05-21T01:32:10.162Z,62.35
2018-05-21T01:35:13.785Z,61.89
2018-05-21T01:38:16.217Z,61.54
2018-05-21T01:41:18.793Z,62.15
2018-05-21T01:44:21.282Z,62.68
2018-05-21T01:47:23.747Z,62.33
2018-05-21T01:50:26.202Z,62.68
2018-05-21T01:53:28.771Z,62.72
2018-05-21T01:56:31.223Z,62.37
2018-05-21T01:59:33.696Z,62.15
2018-05-21T02:02:36.183Z,62.34
2018-05-21T02:05:38.716Z,62.76
2018-05-21T02:08:41.270Z,62.80
2018-05-21T02:11:43.644Z,62.40
2018-05-21T02:14:46.106Z,62.70
2018-05-21T02:17:48.517Z,62.92
2018-05-21T02:20:50.977Z,62.69
2018-05-21T02:23:53.442Z,62.93
2018-05-21T02:26:56.047Z,63.38
2018-05-21T02:29:58.427Z,63.64
2018-05-21T02:33:00.868Z,63.65
2018-05-21T02:36:03.432Z,63.71
2018-05-21T02:39:05.946Z,63.69
2018-05-21T02:42:08.413Z,64.11
2018-05-21T02:45:10.873Z,63.47
2018-05-21T02:48:13.322Z,63.81
2018-05-21T02:51:15.838Z,64.43
2018-05-21T02:54:18.303Z,64.14
2018-05-21T02:57:20.784Z,64.85
2018-05-21T03:00:23.311Z,65.10
2018-05-21T03:03:25.742Z,65.19
2018-05-21T03:06:28.240Z,65.01
2018-05-21T03:09:30.787Z,64.69
2018-05-21T03:12:33.254Z,64.70
2018-05-21T03:15:35.813Z,65.12
2018-05-21T03:18:38.256Z,65.24
2018-05-21T03:21:40.754Z,65.40
2018-05-21T03:24:43.407Z,64.88
2018-05-21T03:27:45.928Z,64.97
2018-05-21T03:30:48.459Z,64.78
2018-05-21T03:33:50.919Z,64.53
2018-05-21T03:36:53.454Z,64.85
2018-05-21T03:39:55.933Z,64.95
2018-05-21T03:42:58.353Z,64.20
2018-05-21T03:46:00.895Z,62.86
2018-05-21T03:49:03.403Z,61.38
2018-05-21T03:52:05.932Z,59.58
2018-05-21T03:55:08.423Z,58.46
2018-05-21T03:58:22.626Z,57.25
2018-05-21T04:01:36.813Z,55.55
2018-05-21T04:04:39.229Z,54.93
2018-05-21T04:07:41.713Z,52.81
2018-05-21T04:10:44.183Z,51.08
2018-05-21T04:13:46.703Z,49.73
2018-05-21T04:16:49.162Z,47.55
2018-05-21T04:19:51.648Z,48.02
2018-05-21T04:22:54.971Z,47.79
2018-05-21T04:25:57.464Z,46.37
2018-05-21T04:29:00.009Z,46.41
2018-05-21T04:32:02.440Z,46.48
2018-05-21T04:35:04.894Z,47.15
2018-05-21T04:38:07.318Z,45.55
2018-05-21T04:41:09.775Z,46.25
2018-05-21T04:44:12.245Z,45.56
2018-05-21T04:47:14.808Z,44.45
2018-05-21T04:50:17.234Z,44.00
2018-05-21T04:53:19.733Z,43.74
2018-05-21T04:56:22.392Z,44.03
2018-05-21T04:59:24.828Z,42.42
2018-05-21T05:02:27.298Z,41.30
2018-05-21T05:05:29.760Z,39.69
2018-05-21T05:08:32.211Z,37.81
2018-05-21T05:11:34.638Z,36.02
2018-05-21T05:14:37.119Z,37.70
2018-05-21T05:17:39.569Z,39.87
2018-05-21T05:20:42.029Z,38.70
2018-05-21T05:23:44.505Z,38.41
2018-05-21T05:26:46.970Z,38.49
2018-05-21T05:29:49.561Z,39.47
2018-05-21T05:32:52.020Z,39.26
2018-05-21T05:35:54.517Z,40.48
2018-05-21T05:38:56.964Z,42.56
2018-05-21T05:41:59.475Z,42.26
2018-05-21T05:45:02.028Z,42.55
2018-05-21T05:48:04.474Z,38.15
2018-05-21T05:51:06.971Z,36.88
2018-05-21T05:54:09.464Z,37.48
2018-05-21T05:57:11.912Z,35.66
2018-05-21T06:00:14.469Z,32.98
2018-05-21T06:03:16.895Z,31.78
2018-05-21T06:06:19.363Z,36.91
2018-05-21T06:09:21.791Z,35.50
2018-05-21T06:12:24.250Z,36.44
2018-05-21T06:15:26.715Z,36.37
2018-05-21T06:18:29.298Z,36.40
2018-05-21T06:21:31.925Z,36.16
2018-05-21T06:24:34.496Z,34.84
2018-05-21T06:27:36.939Z,36.37
2018-05-21T06:30:39.396Z,36.18
2018-05-21T06:33:41.954Z,35.23
2018-05-21T06:36:44.446Z,35.73
2018-05-21T06:39:46.971Z,37.41
2018-05-21T06:42:49.521Z,36.47
2018-05-21T06:45:52.030Z,36.88
2018-05-21T06:48:54.526Z,38.69
2018-05-21T06:51:56.995Z,38.51
2018-05-21T06:54:59.476Z,43.67
2018-05-21T06:58:02.046Z,45.06
2018-05-21T07:01:04.516Z,48.84
2018-05-21T07:04:07.066Z,50.04
2018-05-21T07:07:09.546Z,49.79
2018-05-21T07:10:12.007Z,51.79
2018-05-21T07:13:14.449Z,53.37
2018-05-21T07:16:16.921Z,53.95
2018-05-21T07:19:19.416Z,51.75
2018-05-21T07:22:21.910Z,52.50
2018-05-21T07:25:24.369Z,52.02
2018-05-21T07:28:26.901Z,52.96
2018-05-21T07:31:29.431Z,54.61
2018-05-21T07:34:31.830Z,54.32
2018-05-21T07:37:34.315Z,54.08
2018-05-21T07:40:36.756Z,56.04
2018-05-21T07:43:39.213Z,53.58
2018-05-21T07:46:41.772Z,51.14
2018-05-21T07:49:44.186Z,51.35
2018-05-21T07:52:46.690Z,51.95
2018-05-21T07:55:49.146Z,54.17
2018-05-21T07:58:51.643Z,52.59
2018-05-21T08:01:54.116Z,52.03
2018-05-21T08:04:56.621Z,52.85
2018-05-21T08:07:59.207Z,52.04
2018-05-21T08:11:01.675Z,52.21
2018-05-21T08:14:04.162Z,52.86
2018-05-21T08:17:06.600Z,53.06
2018-05-21T08:20:09.088Z,53.57
2018-05-21T08:23:11.531Z,51.81
2018-05-21T08:26:14.015Z,51.24
2018-05-21T08:29:16.479Z,49.75
2018-05-21T08:32:19.003Z,50.34
2018-05-21T08:35:21.603Z,52.14
2018-05-21T08:38:24.152Z,49.64
2018-05-21T08:41:26.627Z,50.47
2018-05-21T08:44:29.083Z,51.54
2018-05-21T08:47:31.557Z,51.58
2018-05-21T08:50:34.073Z,48.58
2018-05-21T08:53:37.387Z,46.69
2018-05-21T08:56:39.960Z,49.27
2018-05-21T08:59:42.434Z,46.60
2018-05-21T09:02:44.972Z,46.76
2018-05-21T09:05:47.458Z,47.93
2018-05-21T09:08:49.959Z,47.63
2018-05-21T09:11:52.565Z,50.18
2018-05-21T09:14:54.994Z,47.09
2018-05-21T09:17:57.521Z,47.30
2018-05-21T09:21:00.047Z,45.42
2018-05-21T09:24:02.532Z,46.10
2018-05-21T09:27:05.068Z,45.17
2018-05-21T09:30:07.647Z,45.83
2018-05-21T09:33:10.084Z,49.34
2018-05-21T09:36:12.655Z,47.04
2018-05-21T09:39:15.137Z,46.47
2018-05-21T09:42:17.648Z,46.38
2018-05-21T09:45:20.134Z,46.80
2018-05-21T09:48:22.605Z,45.08
2018-05-21T09:51:25.164Z,43.42
2018-05-21T09:54:27.656Z,44.67
2018-05-21T09:57:30.123Z,44.67
2018-05-21T10:00:32.583Z,45.49
2018-05-21T10:03:35.069Z,44.09
2018-05-21T10:06:37.494Z,44.41
2018-05-21T10:09:39.984Z,43.59
2018-05-21T10:12:42.458Z,44.76
2018-05-21T10:15:45.059Z,45.42
2018-05-21T10:18:47.548Z,45.18
2018-05-21T10:21:50.069Z,44.61
2018-05-21T10:24:52.569Z,45.14
2018-05-21T10:27:55.104Z,43.48
2018-05-21T10:30:57.671Z,42.86
2018-05-21T10:34:00.122Z,41.82
2018-05-21T10:37:02.723Z,41.52
2018-05-21T10:40:05.224Z,42.56
2018-05-21T10:43:07.928Z,41.41
2018-05-21T10:46:10.451Z,40.62
2018-05-21T10:49:12.929Z,41.09
2018-05-21T10:52:15.468Z,41.90
2018-05-21T10:55:17.994Z,40.13
2018-05-21T10:58:20.533Z,40.25
2018-05-21T11:01:22.982Z,40.59
2018-05-21T11:04:25.460Z,40.85
2018-05-21T11:07:28.514Z,39.77
2018-05-21T11:10:31.002Z,39.28
2018-05-21T11:13:33.524Z,39.59
2018-05-21T11:16:36.064Z,39.00
2018-05-21T11:19:38.564Z,39.27
2018-05-21T11:22:41.058Z,40.33
2018-05-21T11:25:43.550Z,40.10
2018-05-21T11:28:45.975Z,39.23
2018-05-21T11:31:48.558Z,38.94
2018-05-21T11:34:51.005Z,40.17
2018-05-21T11:37:53.485Z,40.76
2018-05-21T11:40:55.998Z,40.54
2018-05-21T11:43:58.451Z,39.27
2018-05-21T11:47:00.914Z,38.25
2018-05-21T11:50:03.386Z,37.88
2018-05-21T11:53:05.875Z,40.36
2018-05-21T11:56:08.327Z,40.44
2018-05-21T11:59:10.909Z,38.34
2018-05-21T12:02:13.365Z,40.07
2018-05-21T12:05:15.834Z,40.25
2018-05-21T12:08:18.385Z,38.78
2018-05-21T12:11:20.851Z,39.10
2018-05-21T12:14:23.310Z,39.93
2018-05-21T12:17:25.789Z,41.02
2018-05-21T12:20:28.270Z,39.36
2018-05-21T12:23:31.170Z,39.99
2018-05-21T12:26:33.660Z,39.90
2018-05-21T12:29:36.181Z,39.19
2018-05-21T12:32:38.674Z,38.54
2018-05-21T12:35:41.115Z,40.55
2018-05-21T12:38:43.660Z,39.25
2018-05-21T12:41:46.159Z,39.43
2018-05-21T12:44:48.655Z,40.07
2018-05-21T12:47:51.249Z,39.56
2018-05-21T12:50:53.677Z,40.01
2018-05-21T12:53:56.168Z,39.46
2018-05-21T12:56:58.734Z,38.69
2018-05-21T13:00:01.233Z,38.28
2018-05-21T13:03:03.756Z,39.79
2018-05-21T13:06:06.424Z,38.46
2018-05-21T13:09:08.889Z,38.84
2018-05-21T13:12:11.346Z,38.26
2018-05-21T13:15:13.863Z,37.50
2018-05-21T13:18:16.301Z,38.15
2018-05-21T13:21:18.829Z,37.48
2018-05-21T13:24:21.372Z,38.34
2018-05-21T13:27:23.871Z,37.02
2018-05-21T13:30:26.419Z,37.88
2018-05-21T13:33:28.879Z,36.82
2018-05-21T13:36:31.375Z,35.52
2018-05-21T13:39:33.840Z,37.79
2018-05-21T13:42:36.359Z,35.99
2018-05-21T13:45:38.849Z,35.76
2018-05-21T13:48:41.310Z,35.11
2018-05-21T13:51:43.811Z,35.51
2018-05-21T13:54:46.404Z,34.16
2018-05-21T13:57:48.887Z,34.92
2018-05-21T14:00:51.355Z,35.56
2018-05-21T14:03:53.826Z,36.04
2018-05-21T14:06:56.286Z,35.29
2018-05-21T14:09:58.771Z,35.60
2018-05-21T14:13:01.231Z,35.06
2018-05-21T14:16:03.677Z,35.27
2018-05-21T14:19:06.161Z,35.07
2018-05-21T14:22:08.759Z,33.92
2018-05-21T14:25:11.299Z,34.99
2018-05-21T14:28:13.746Z,35.47
2018-05-21T14:31:16.229Z,33.72
2018-05-21T14:34:18.708Z,35.11
2018-05-21T14:37:21.192Z,34.57
2018-05-21T14:40:23.632Z,35.48
2018-05-21T14:43:26.107Z,35.38
2018-05-21T14:46:28.685Z,35.65
2018-05-21T14:49:31.200Z,35.14
2018-05-21T14:52:33.671Z,36.02
2018-05-21T14:55:36.231Z,34.30
2018-05-21T14:58:38.709Z,35.78
2018-05-21T15:01:41.247Z,35.15
2018-05-21T15:04:43.731Z,36.03
2018-05-21T15:07:46.214Z,34.58
2018-05-21T15:10:48.735Z,34.25
2018-05-21T15:13:51.200Z,34.04
2018-05-21T15:16:53.862Z,34.37
2018-05-21T15:19:56.343Z,33.73
2018-05-21T15:22:58.855Z,34.57
2018-05-21T15:26:01.447Z,33.74
2018-05-21T15:29:03.892Z,34.28
2018-05-21T15:32:06.375Z,33.05
2018-05-21T15:35:08.914Z,34.08
2018-05-21T15:38:11.481Z,33.27
2018-05-21T15:41:13.951Z,32.63
2018-05-21T15:44:16.445Z,33.05
2018-05-21T15:47:18.941Z,33.46
2018-05-21T15:50:21.391Z,32.51
2018-05-21T15:53:23.906Z,32.48
2018-05-21T15:56:26.387Z,32.48
2018-05-21T15:59:28.932Z,32.02
2018-05-21T16:02:31.490Z,32.73
2018-05-21T16:05:33.981Z,32.44
2018-05-21T16:08:36.476Z,33.29
2018-05-21T16:11:38.948Z,33.76
2018-05-21T16:14:41.434Z,33.42
2018-05-21T16:17:43.917Z,33.18
2018-05-21T16:20:46.453Z,33.70
2018-05-21T16:23:48.988Z,33.87
2018-05-21T16:26:51.513Z,34.08
2018-05-21T16:29:53.946Z,34.64
2018-05-21T16:32:56.445Z,33.62
2018-05-21T16:35:58.911Z,33.41
2018-05-21T16:39:01.424Z,32.92
2018-05-21T16:42:03.887Z,33.52
2018-05-21T16:45:06.374Z,32.57
2018-05-21T16:48:08.817Z,32.68
2018-05-21T16:51:11.411Z,32.25
2018-05-21T16:54:14.003Z,31.71
2018-05-21T16:57:16.501Z,32.97
2018-05-21T17:00:19.068Z,32.31
2018-05-21T17:03:21.496Z,29.77
2018-05-21T17:06:24.048Z,29.80
2018-05-21T17:09:26.571Z,28.24
2018-05-21T17:12:29.103Z,27.41
2018-05-21T17:15:31.602Z,27.75
2018-05-21T17:18:34.078Z,27.03
2018-05-21T17:21:36.587Z,27.13
2018-05-21T17:24:39.246Z,26.91
2018-05-21T17:27:41.733Z,27.67
2018-05-21T17:30:44.223Z,27.58
2018-05-21T17:33:46.936Z,26.83
2018-05-21T17:36:49.442Z,29.22
2018-05-21T17:39:51.962Z,29.53
2018-05-21T17:42:54.511Z,28.95
2018-05-21T17:45:56.982Z,28.76
2018-05-21T17:48:59.451Z,29.80
2018-05-21T17:52:01.939Z,30.17
2018-05-21T17:55:04.532Z,29.62
2018-05-21T17:58:07.140Z,30.39
2018-05-21T18:01:09.644Z,31.24
2018-05-21T18:04:12.129Z,31.51
2018-05-21T18:07:14.630Z,31.27
2018-05-21T18:10:17.143Z,31.79
2018-05-21T18:13:19.606Z,33.40
2018-05-21T18:16:22.229Z,34.30
2018-05-21T18:19:24.728Z,37.19
2018-05-21T18:22:27.236Z,38.35
2018-05-21T18:25:29.775Z,38.27
2018-05-21T18:28:32.280Z,38.18
2018-05-21T18:31:34.768Z,39.20
2018-05-21T18:34:37.257Z,39.15
2018-05-21T18:37:39.752Z,39.14
2018-05-21T18:40:42.288Z,39.15
2018-05-21T18:43:44.799Z,39.62
2018-05-21T18:46:47.311Z,39.86
2018-05-21T18:49:49.783Z,40.60
2018-05-21T18:52:52.279Z,41.12
2018-05-21T18:55:54.843Z,42.94
2018-05-21T18:58:57.366Z,42.65
2018-05-21T19:01:59.823Z,42.97
2018-05-21T19:05:02.353Z,43.00
2018-05-21T19:08:04.845Z,43.71
2018-05-21T19:11:07.371Z,44.28
2018-05-21T19:14:09.825Z,43.70
2018-05-21T19:17:12.411Z,43.91
2018-05-21T19:20:14.873Z,44.49
2018-05-21T19:23:17.373Z,45.16
2018-05-21T19:26:19.909Z,45.53
2018-05-21T19:29:22.420Z,45.43
2018-05-21T19:32:24.945Z,45.60
2018-05-21T19:35:27.424Z,45.75
2018-05-21T19:38:29.905Z,45.99
2018-05-21T19:41:32.422Z,46.59
2018-05-21T19:44:35.005Z,46.86
2018-05-21T19:47:37.654Z,47.47
2018-05-21T19:50:40.192Z,46.95
2018-05-21T19:53:42.654Z,47.36
2018-05-21T19:56:45.124Z,47.60
2018-05-21T19:59:47.622Z,46.96
2018-05-21T20:02:50.225Z,47.31
2018-05-21T20:05:52.798Z,47.03
2018-05-21T20:08:55.277Z,47.64
2018-05-21T20:11:57.751Z,47.43
2018-05-21T20:15:00.223Z,47.83
2018-05-21T20:18:02.732Z,48.51
2018-05-21T20:21:05.205Z,48.56
2018-05-21T20:24:07.693Z,48.48
2018-05-21T20:27:10.159Z,48.20
2018-05-21T20:30:12.640Z,47.84
2018-05-21T20:33:15.175Z,47.86
2018-05-21T20:36:17.604Z,47.70
2018-05-21T20:39:20.714Z,46.94
2018-05-21T20:42:23.234Z,47.29
2018-05-21T20:45:25.798Z,47.02
2018-05-21T20:48:28.259Z,46.85
2018-05-21T20:51:30.756Z,45.70
2018-05-21T20:54:33.200Z,45.61
2018-05-21T20:57:35.721Z,45.28
2018-05-21T21:00:38.335Z,44.97
2018-05-21T21:03:40.780Z,44.38
2018-05-21T21:06:43.274Z,44.33
2018-05-21T21:09:45.771Z,43.82
2018-05-21T21:12:48.290Z,43.90
2018-05-21T21:15:50.779Z,43.69
2018-05-21T21:18:53.303Z,42.85
2018-05-21T21:21:55.766Z,43.04
2018-05-21T21:24:58.285Z,43.19
2018-05-21T21:28:00.814Z,42.79
2018-05-21T21:31:03.336Z,43.12
2018-05-21T21:34:06.584Z,43.16
2018-05-21T21:37:09.234Z,43.45
2018-05-21T21:40:11.722Z,43.26
2018-05-21T21:43:14.221Z,43.55
2018-05-21T21:46:16.710Z,45.79
2018-05-21T21:49:19.149Z,48.09
2018-05-21T21:52:21.685Z,49.47
2018-05-21T21:55:24.238Z,50.69
2018-05-21T21:58:26.714Z,51.66
2018-05-21T22:01:29.212Z,53.14
2018-05-21T22:04:31.717Z,53.26
2018-05-21T22:07:34.164Z,54.23
2018-05-21T22:10:36.611Z,54.06
2018-05-21T22:13:39.136Z,54.87
2018-05-21T22:16:41.572Z,55.66
2018-05-21T22:19:44.265Z,55.95
2018-05-21T22:22:46.757Z,56.77
2018-05-21T22:25:49.247Z,56.48
2018-05-21T22:28:51.733Z,55.13
2018-05-21T22:31:54.310Z,54.71
2018-05-21T22:34:56.870Z,55.17
2018-05-21T22:37:59.299Z,56.51
2018-05-21T22:41:01.897Z,57.29
2018-05-21T22:44:04.437Z,57.95
2018-05-21T22:47:06.909Z,57.22
2018-05-21T22:50:09.417Z,57.25
2018-05-21T22:53:11.874Z,56.82
2018-05-21T22:56:14.317Z,57.35
2018-05-21T22:59:16.801Z,57.31
2018-05-21T23:02:19.251Z,57.61
2018-05-21T23:05:21.784Z,58.00
2018-05-21T23:08:24.349Z,58.48
2018-05-21T23:11:26.901Z,58.35
2018-05-21T23:14:29.467Z,58.71
2018-05-21T23:17:31.920Z,58.56
2018-05-21T23:20:34.387Z,58.98
2018-05-21T23:23:36.882Z,59.34
2018-05-21T23:26:39.320Z,59.62
2018-05-21T23:29:41.810Z,60.49
2018-05-21T23:32:44.319Z,60.88
2018-05-21T23:35:46.786Z,61.31
2018-05-21T23:38:49.362Z,60.47
2018-05-21T23:41:51.818Z,60.29
2018-05-21T23:44:54.457Z,60.96
2018-05-21T23:47:56.925Z,61.09
2018-05-21T23:50:59.411Z,61.19
2018-05-21T23:54:01.972Z,61.47
2018-05-21T23:57:04.464Z,61.91
